Dickerson, Maryland
Current Conditions -  °F | °C
As of 11:15 AM on Thursday 27 Nov 2014 (Local Time) from KJYO Reporting Station
Overcast Overcast  
Wind Chill: 37°   Ceiling: 2200
Heat Index: 41°   Visibility: 10mi
Dew Point: 37°   Wind: 6mph
Humidity: 87%   Direction: 320°NW
Pressure: 30.06"   Gusts: NA
Location:  39.22°N, 77.42°W
Report Text: KJYO 271615Z AUTO 32005KT 10SM SCT017 BKN022 OVC070 05/03 A3006 RMK AO2 P0001
Loading
Personal Weather Stations






























Interactive Weather Map New forecast layout! Learn more

10-Day Weather Forecast

Advertisements
Track Severe Weather on mobile